sensor_id;sensor_type;location;lat;lon;timestamp;temperature;humidity
15959;DHT22;8078;47.822;9.402;2023-05-02T00:00:10;7.20;99.90
15959;DHT22;8078;47.822;9.402;2023-05-02T00:02:36;7.20;99.90
15959;DHT22;8078;47.822;9.402;2023-05-02T00:05:01;7.20;99.90
15959;DHT22;8078;47.822;9.402;2023-05-02T00:07:27;7.10;99.90
15959;DHT22;8078;47.822;9.402;2023-05-02T00:09:53;7.20;99.90
15959;DHT22;8078;47.822;9.402;2023-05-02T00:12:19;7.20;99.90
15959;DHT22;8078;47.822;9.402;2023-05-02T00:14:44;7.20;99.90
15959;DHT22;8078;47.822;9.402;2023-05-02T00:17:16;7.20;99.90
15959;DHT22;8078;47.822;9.402;2023-05-02T00:19:43;7.10;99.90
15959;DHT22;8078;47.822;9.402;2023-05-02T00:22:08;7.10;99.90
15959;DHT22;8078;47.822;9.402;2023-05-02T00:24:34;7.10;99.90
15959;DHT22;8078;47.822;9.402;2023-05-02T00:26:59;7.10;99.90
15959;DHT22;8078;47.822;9.402;2023-05-02T00:29:25;7.10;99.90
15959;DHT22;8078;47.822;9.402;2023-05-02T00:31:51;7.10;99.90
15959;DHT22;8078;47.822;9.402;2023-05-02T00:34:16;7.10;99.90
15959;DHT22;8078;47.822;9.402;2023-05-02T00:36:42;7.10;99.90
15959;DHT22;8078;47.822;9.402;2023-05-02T00:39:08;7.10;99.90
15959;DHT22;8078;47.822;9.402;2023-05-02T00:41:34;7.10;99.90
15959;DHT22;8078;47.822;9.402;2023-05-02T00:43:59;7.10;99.90
15959;DHT22;8078;47.822;9.402;2023-05-02T00:46:25;7.00;99.90
15959;DHT22;8078;47.822;9.402;2023-05-02T00:48:51;7.00;99.90
15959;DHT22;8078;47.822;9.402;2023-05-02T00:51:17;7.00;99.90
15959;DHT22;8078;47.822;9.402;2023-05-02T00:53:44;7.00;99.90
15959;DHT22;8078;47.822;9.402;2023-05-02T00:56:09;7.00;99.90
15959;DHT22;8078;47.822;9.402;2023-05-02T00:58:39;7.00;99.90
15959;DHT22;8078;47.822;9.402;2023-05-02T01:09:48;7.00;99.90
15959;DHT22;8078;47.822;9.402;2023-05-02T01:14:46;7.00;99.90
15959;DHT22;8078;47.822;9.402;2023-05-02T01:17:16;6.90;99.90
15959;DHT22;8078;47.822;9.402;2023-05-02T01:19:57;7.00;99.90
15959;DHT22;8078;47.822;9.402;2023-05-02T01:22:25;6.90;99.90
15959;DHT22;8078;47.822;9.402;2023-05-02T01:30:21;7.00;99.90
15959;DHT22;8078;47.822;9.402;2023-05-02T01:32:49;7.00;99.90
15959;DHT22;8078;47.822;9.402;2023-05-02T01:35:17;7.00;99.90
15959;DHT22;8078;47.822;9.402;2023-05-02T01:37:44;7.00;99.90
15959;DHT22;8078;47.822;9.402;2023-05-02T01:40:13;7.00;99.90
15959;DHT22;8078;47.822;9.402;2023-05-02T01:42:41;7.00;99.90
15959;DHT22;8078;47.822;9.402;2023-05-02T01:45:08;7.00;99.90
15959;DHT22;8078;47.822;9.402;2023-05-02T01:47:35;7.00;99.90
15959;DHT22;8078;47.822;9.402;2023-05-02T01:50:02;7.00;99.90
15959;DHT22;8078;47.822;9.402;2023-05-02T01:52:31;7.00;99.90
15959;DHT22;8078;47.822;9.402;2023-05-02T01:54:58;7.00;99.90
15959;DHT22;8078;47.822;9.402;2023-05-02T01:57:24;7.00;99.90
15959;DHT22;8078;47.822;9.402;2023-05-02T01:59:50;7.00;99.90
15959;DHT22;8078;47.822;9.402;2023-05-02T02:02:17;7.00;99.90
15959;DHT22;8078;47.822;9.402;2023-05-02T02:04:46;7.00;99.90
15959;DHT22;8078;47.822;9.402;2023-05-02T02:07:13;7.00;99.90
15959;DHT22;8078;47.822;9.402;2023-05-02T02:09:39;7.10;99.90
15959;DHT22;8078;47.822;9.402;2023-05-02T02:12:16;7.10;99.90
15959;DHT22;8078;47.822;9.402;2023-05-02T02:14:50;7.10;99.90
15959;DHT22;8078;47.822;9.402;2023-05-02T02:17:31;7.10;99.90
15959;DHT22;8078;47.822;9.402;2023-05-02T02:20:03;7.10;99.90
15959;DHT22;8078;47.822;9.402;2023-05-02T02:22:31;7.10;99.90
15959;DHT22;8078;47.822;9.402;2023-05-02T02:24:58;7.10;99.90
15959;DHT22;8078;47.822;9.402;2023-05-02T02:27:25;7.20;99.90
15959;DHT22;8078;47.822;9.402;2023-05-02T02:29:51;7.20;99.90
15959;DHT22;8078;47.822;9.402;2023-05-02T02:32:16;7.20;99.90
15959;DHT22;8078;47.822;9.402;2023-05-02T02:34:42;7.30;99.90
15959;DHT22;8078;47.822;9.402;2023-05-02T02:37:18;7.30;99.90
15959;DHT22;8078;47.822;9.402;2023-05-02T02:39:59;7.30;99.90
15959;DHT22;8078;47.822;9.402;2023-05-02T02:43:01;7.40;99.90
15959;DHT22;8078;47.822;9.402;2023-05-02T02:48:34;7.40;99.90
15959;DHT22;8078;47.822;9.402;2023-05-02T02:53:57;7.40;99.90
15959;DHT22;8078;47.822;9.402;2023-05-02T02:56:35;7.40;99.90
15959;DHT22;8078;47.822;9.402;2023-05-02T03:02:07;7.40;99.90
15959;DHT22;8078;47.822;9.402;2023-05-02T03:04:35;7.50;99.90
15959;DHT22;8078;47.822;9.402;2023-05-02T03:07:02;7.50;99.90
15959;DHT22;8078;47.822;9.402;2023-05-02T03:09:27;7.40;99.90
15959;DHT22;8078;47.822;9.402;2023-05-02T03:12:04;7.40;99.90
15959;DHT22;8078;47.822;9.402;2023-05-02T03:14:32;7.50;99.90
15959;DHT22;8078;47.822;9.402;2023-05-02T03:16:57;7.50;99.90
15959;DHT22;8078;47.822;9.402;2023-05-02T03:19:23;7.50;99.90
15959;DHT22;8078;47.822;9.402;2023-05-02T03:21:48;7.50;99.90
15959;DHT22;8078;47.822;9.402;2023-05-02T03:24:14;7.50;99.90
15959;DHT22;8078;47.822;9.402;2023-05-02T03:26:40;7.50;99.90
15959;DHT22;8078;47.822;9.402;2023-05-02T03:29:06;7.50;99.90
15959;DHT22;8078;47.822;9.402;2023-05-02T03:31:32;7.50;99.90
15959;DHT22;8078;47.822;9.402;2023-05-02T03:33:57;7.50;99.90
15959;DHT22;8078;47.822;9.402;2023-05-02T03:36:23;7.50;99.90
15959;DHT22;8078;47.822;9.402;2023-05-02T03:38:49;7.50;99.90
15959;DHT22;8078;47.822;9.402;2023-05-02T03:41:15;7.50;99.90
15959;DHT22;8078;47.822;9.402;2023-05-02T03:43:40;7.60;99.90
15959;DHT22;8078;47.822;9.402;2023-05-02T03:46:07;7.60;99.90
15959;DHT22;8078;47.822;9.402;2023-05-02T03:48:34;7.60;99.90
15959;DHT22;8078;47.822;9.402;2023-05-02T03:51:01;7.50;99.90
15959;DHT22;8078;47.822;9.402;2023-05-02T03:53:27;7.60;99.90
15959;DHT22;8078;47.822;9.402;2023-05-02T03:55:53;7.50;99.90
15959;DHT22;8078;47.822;9.402;2023-05-02T03:58:18;7.50;99.90
15959;DHT22;8078;47.822;9.402;2023-05-02T04:00:44;7.50;99.90
15959;DHT22;8078;47.822;9.402;2023-05-02T04:03:10;7.50;99.90
15959;DHT22;8078;47.822;9.402;2023-05-02T04:05:35;7.50;99.90
15959;DHT22;8078;47.822;9.402;2023-05-02T04:08:01;7.50;99.90
15959;DHT22;8078;47.822;9.402;2023-05-02T04:10:27;7.50;99.90
15959;DHT22;8078;47.822;9.402;2023-05-02T04:12:52;7.50;99.90
15959;DHT22;8078;47.822;9.402;2023-05-02T04:15:18;7.50;99.90
15959;DHT22;8078;47.822;9.402;2023-05-02T04:17:44;7.50;99.90
15959;DHT22;8078;47.822;9.402;2023-05-02T04:20:10;7.50;99.90
15959;DHT22;8078;47.822;9.402;2023-05-02T04:22:36;7.50;99.90
15959;DHT22;8078;47.822;9.402;2023-05-02T04:25:07;7.50;99.90
15959;DHT22;8078;47.822;9.402;2023-05-02T04:27:32;7.50;99.90
15959;DHT22;8078;47.822;9.402;2023-05-02T04:29:58;7.50;99.90
15959;DHT22;8078;47.822;9.402;2023-05-02T04:32:23;7.50;99.90
15959;DHT22;8078;47.822;9.402;2023-05-02T04:34:49;7.50;99.90
15959;DHT22;8078;47.822;9.402;2023-05-02T04:37:15;7.60;99.90
15959;DHT22;8078;47.822;9.402;2023-05-02T04:39:41;7.70;99.90
15959;DHT22;8078;47.822;9.402;2023-05-02T04:42:06;7.60;99.90
15959;DHT22;8078;47.822;9.402;2023-05-02T04:44:32;7.60;99.90
15959;DHT22;8078;47.822;9.402;2023-05-02T04:46:58;7.70;99.90
15959;DHT22;8078;47.822;9.402;2023-05-02T04:49:23;7.70;99.90
15959;DHT22;8078;47.822;9.402;2023-05-02T04:51:49;7.80;99.90
15959;DHT22;8078;47.822;9.402;2023-05-02T04:54:16;7.80;99.90
15959;DHT22;8078;47.822;9.402;2023-05-02T04:56:41;7.80;99.90
15959;DHT22;8078;47.822;9.402;2023-05-02T04:59:07;7.80;99.90
15959;DHT22;8078;47.822;9.402;2023-05-02T05:01:33;7.80;99.90
15959;DHT22;8078;47.822;9.402;2023-05-02T05:03:58;7.80;99.90
15959;DHT22;8078;47.822;9.402;2023-05-02T05:06:24;7.80;99.90
15959;DHT22;8078;47.822;9.402;2023-05-02T05:08:49;7.80;99.90
15959;DHT22;8078;47.822;9.402;2023-05-02T05:11:15;7.90;99.90
15959;DHT22;8078;47.822;9.402;2023-05-02T05:13:41;7.90;99.90
15959;DHT22;8078;47.822;9.402;2023-05-02T05:16:07;8.00;99.90
15959;DHT22;8078;47.822;9.402;2023-05-02T05:18:33;7.90;99.90
15959;DHT22;8078;47.822;9.402;2023-05-02T05:21:05;7.90;99.90
15959;DHT22;8078;47.822;9.402;2023-05-02T05:23:32;7.90;99.90
15959;DHT22;8078;47.822;9.402;2023-05-02T05:25:57;8.00;99.90
15959;DHT22;8078;47.822;9.402;2023-05-02T05:28:23;8.20;99.90
15959;DHT22;8078;47.822;9.402;2023-05-02T05:30:49;8.10;99.90
15959;DHT22;8078;47.822;9.402;2023-05-02T05:33:16;8.30;99.90
15959;DHT22;8078;47.822;9.402;2023-05-02T05:35:41;8.30;99.90
15959;DHT22;8078;47.822;9.402;2023-05-02T05:38:07;8.40;99.90
15959;DHT22;8078;47.822;9.402;2023-05-02T05:40:33;8.40;99.90
15959;DHT22;8078;47.822;9.402;2023-05-02T05:42:58;8.40;99.90
15959;DHT22;8078;47.822;9.402;2023-05-02T05:45:24;8.50;99.90
15959;DHT22;8078;47.822;9.402;2023-05-02T05:47:49;8.50;99.90
15959;DHT22;8078;47.822;9.402;2023-05-02T05:50:15;8.50;99.90
15959;DHT22;8078;47.822;9.402;2023-05-02T05:52:41;8.40;99.90
15959;DHT22;8078;47.822;9.402;2023-05-02T05:55:07;8.50;99.90
15959;DHT22;8078;47.822;9.402;2023-05-02T05:57:33;8.50;99.90
15959;DHT22;8078;47.822;9.402;2023-05-02T05:59:58;8.50;99.90
15959;DHT22;8078;47.822;9.402;2023-05-02T06:02:24;8.60;99.90
15959;DHT22;8078;47.822;9.402;2023-05-02T06:04:49;8.60;99.90
15959;DHT22;8078;47.822;9.402;2023-05-02T06:07:15;8.70;99.90
15959;DHT22;8078;47.822;9.402;2023-05-02T06:09:40;8.70;99.90
15959;DHT22;8078;47.822;9.402;2023-05-02T06:12:06;8.70;99.90
15959;DHT22;8078;47.822;9.402;2023-05-02T06:14:31;8.70;99.90
15959;DHT22;8078;47.822;9.402;2023-05-02T06:17:00;8.70;99.90
15959;DHT22;8078;47.822;9.402;2023-05-02T06:19:25;8.70;99.90
15959;DHT22;8078;47.822;9.402;2023-05-02T06:21:51;8.70;99.90
15959;DHT22;8078;47.822;9.402;2023-05-02T06:24:17;8.90;99.90
15959;DHT22;8078;47.822;9.402;2023-05-02T06:26:42;9.00;99.90
15959;DHT22;8078;47.822;9.402;2023-05-02T06:29:08;9.20;99.90
15959;DHT22;8078;47.822;9.402;2023-05-02T06:31:33;9.30;99.90
15959;DHT22;8078;47.822;9.402;2023-05-02T06:33:59;9.30;99.90
15959;DHT22;8078;47.822;9.402;2023-05-02T06:36:24;9.40;99.90
15959;DHT22;8078;47.822;9.402;2023-05-02T06:38:50;9.50;99.90
15959;DHT22;8078;47.822;9.402;2023-05-02T06:41:15;9.40;99.90
15959;DHT22;8078;47.822;9.402;2023-05-02T06:43:41;9.30;99.90
15959;DHT22;8078;47.822;9.402;2023-05-02T06:46:07;9.40;99.90
15959;DHT22;8078;47.822;9.402;2023-05-02T06:48:34;9.30;99.90
15959;DHT22;8078;47.822;9.402;2023-05-02T06:51:00;9.30;99.90
15959;DHT22;8078;47.822;9.402;2023-05-02T06:53:28;9.40;99.90
15959;DHT22;8078;47.822;9.402;2023-05-02T06:55:54;9.50;99.90
15959;DHT22;8078;47.822;9.402;2023-05-02T06:58:20;9.50;99.90
15959;DHT22;8078;47.822;9.402;2023-05-02T07:00:45;9.60;99.90
15959;DHT22;8078;47.822;9.402;2023-05-02T07:03:12;9.60;99.90
15959;DHT22;8078;47.822;9.402;2023-05-02T07:05:38;9.70;99.90
15959;DHT22;8078;47.822;9.402;2023-05-02T07:08:04;9.80;99.90
15959;DHT22;8078;47.822;9.402;2023-05-02T07:10:30;9.80;99.90
15959;DHT22;8078;47.822;9.402;2023-05-02T07:12:55;9.70;99.90
15959;DHT22;8078;47.822;9.402;2023-05-02T07:15:21;9.70;99.90
15959;DHT22;8078;47.822;9.402;2023-05-02T07:17:46;9.60;99.90
15959;DHT22;8078;47.822;9.402;2023-05-02T07:20:13;9.60;99.90
15959;DHT22;8078;47.822;9.402;2023-05-02T07:22:40;9.60;99.90
15959;DHT22;8078;47.822;9.402;2023-05-02T07:25:05;9.70;99.90
15959;DHT22;8078;47.822;9.402;2023-05-02T07:27:31;9.80;99.90
15959;DHT22;8078;47.822;9.402;2023-05-02T07:29:56;9.70;99.90
15959;DHT22;8078;47.822;9.402;2023-05-02T07:32:22;9.60;99.90
15959;DHT22;8078;47.822;9.402;2023-05-02T07:34:49;9.50;99.90
15959;DHT22;8078;47.822;9.402;2023-05-02T07:37:18;9.40;99.90
15959;DHT22;8078;47.822;9.402;2023-05-02T07:39:44;9.40;99.90
15959;DHT22;8078;47.822;9.402;2023-05-02T07:42:09;9.50;99.90
15959;DHT22;8078;47.822;9.402;2023-05-02T07:44:35;9.40;99.90
15959;DHT22;8078;47.822;9.402;2023-05-02T07:47:01;9.50;99.90
15959;DHT22;8078;47.822;9.402;2023-05-02T07:49:27;9.60;99.90
15959;DHT22;8078;47.822;9.402;2023-05-02T07:51:52;9.60;99.90
15959;DHT22;8078;47.822;9.402;2023-05-02T07:54:19;9.70;99.90
15959;DHT22;8078;47.822;9.402;2023-05-02T07:56:45;9.80;99.90
15959;DHT22;8078;47.822;9.402;2023-05-02T07:59:11;9.80;99.90
15959;DHT22;8078;47.822;9.402;2023-05-02T08:01:38;9.90;99.90
15959;DHT22;8078;47.822;9.402;2023-05-02T08:04:04;10.00;99.90
15959;DHT22;8078;47.822;9.402;2023-05-02T08:06:30;10.10;99.90
15959;DHT22;8078;47.822;9.402;2023-05-02T08:08:57;10.20;99.90
15959;DHT22;8078;47.822;9.402;2023-05-02T08:11:22;10.10;99.90
15959;DHT22;8078;47.822;9.402;2023-05-02T08:13:50;10.00;99.90
15959;DHT22;8078;47.822;9.402;2023-05-02T08:16:17;10.00;99.90
15959;DHT22;8078;47.822;9.402;2023-05-02T08:18:42;9.70;99.90
15959;DHT22;8078;47.822;9.402;2023-05-02T08:21:08;9.70;99.90
15959;DHT22;8078;47.822;9.402;2023-05-02T08:23:34;9.70;99.90
15959;DHT22;8078;47.822;9.402;2023-05-02T08:26:00;9.60;99.90
15959;DHT22;8078;47.822;9.402;2023-05-02T08:28:25;9.60;99.90
15959;DHT22;8078;47.822;9.402;2023-05-02T08:30:51;9.70;99.90
15959;DHT22;8078;47.822;9.402;2023-05-02T08:33:16;9.90;99.90
15959;DHT22;8078;47.822;9.402;2023-05-02T08:35:42;10.40;99.90
15959;DHT22;8078;47.822;9.402;2023-05-02T08:38:08;11.00;99.90
15959;DHT22;8078;47.822;9.402;2023-05-02T08:40:37;11.60;99.90
15959;DHT22;8078;47.822;9.402;2023-05-02T08:43:03;12.10;99.90
15959;DHT22;8078;47.822;9.402;2023-05-02T08:45:36;12.50;99.90
15959;DHT22;8078;47.822;9.402;2023-05-02T08:48:11;12.70;99.90
15959;DHT22;8078;47.822;9.402;2023-05-02T08:50:38;12.40;99.90
15959;DHT22;8078;47.822;9.402;2023-05-02T08:53:07;11.60;99.90
15959;DHT22;8078;47.822;9.402;2023-05-02T08:55:34;11.30;99.90
15959;DHT22;8078;47.822;9.402;2023-05-02T08:58:02;10.90;99.90
15959;DHT22;8078;47.822;9.402;2023-05-02T09:00:28;10.70;99.90
15959;DHT22;8078;47.822;9.402;2023-05-02T09:03:10;10.80;99.90
15959;DHT22;8078;47.822;9.402;2023-05-02T09:05:40;10.70;99.90
15959;DHT22;8078;47.822;9.402;2023-05-02T09:08:06;10.70;99.90
15959;DHT22;8078;47.822;9.402;2023-05-02T09:10:34;10.60;99.90
15959;DHT22;8078;47.822;9.402;2023-05-02T09:13:42;10.90;99.90
15959;DHT22;8078;47.822;9.402;2023-05-02T09:16:16;11.40;99.90
15959;DHT22;8078;47.822;9.402;2023-05-02T09:18:44;11.50;99.90
15959;DHT22;8078;47.822;9.402;2023-05-02T09:21:39;11.60;99.90
15959;DHT22;8078;47.822;9.402;2023-05-02T09:24:19;12.10;99.90
15959;DHT22;8078;47.822;9.402;2023-05-02T09:27:04;12.70;99.90
15959;DHT22;8078;47.822;9.402;2023-05-02T09:29:31;13.10;99.90
15959;DHT22;8078;47.822;9.402;2023-05-02T09:32:01;13.30;99.90
15959;DHT22;8078;47.822;9.402;2023-05-02T09:34:28;13.40;99.90
15959;DHT22;8078;47.822;9.402;2023-05-02T09:36:53;13.70;99.90
15959;DHT22;8078;47.822;9.402;2023-05-02T09:39:22;13.80;99.90
15959;DHT22;8078;47.822;9.402;2023-05-02T09:41:49;13.50;99.90
15959;DHT22;8078;47.822;9.402;2023-05-02T09:44:20;13.60;99.90
15959;DHT22;8078;47.822;9.402;2023-05-02T09:46:48;13.50;99.90
15959;DHT22;8078;47.822;9.402;2023-05-02T09:49:14;13.60;99.90
15959;DHT22;8078;47.822;9.402;2023-05-02T09:51:43;13.70;99.90
15959;DHT22;8078;47.822;9.402;2023-05-02T09:54:09;13.80;99.90
15959;DHT22;8078;47.822;9.402;2023-05-02T09:56:53;13.80;99.90
15959;DHT22;8078;47.822;9.402;2023-05-02T09:59:21;13.40;99.90
15959;DHT22;8078;47.822;9.402;2023-05-02T10:01:54;13.20;99.90
15959;DHT22;8078;47.822;9.402;2023-05-02T10:04:21;13.10;99.90
15959;DHT22;8078;47.822;9.402;2023-05-02T10:06:47;13.00;99.90
15959;DHT22;8078;47.822;9.402;2023-05-02T10:09:14;13.10;99.90
15959;DHT22;8078;47.822;9.402;2023-05-02T10:11:43;13.00;99.90
15959;DHT22;8078;47.822;9.402;2023-05-02T10:14:10;12.80;99.90
15959;DHT22;8078;47.822;9.402;2023-05-02T10:17:13;12.80;99.90
15959;DHT22;8078;47.822;9.402;2023-05-02T10:20:00;12.90;99.90
15959;DHT22;8078;47.822;9.402;2023-05-02T10:22:28;13.10;99.90
15959;DHT22;8078;47.822;9.402;2023-05-02T10:24:56;13.30;99.90
15959;DHT22;8078;47.822;9.402;2023-05-02T10:27:22;13.00;99.90
15959;DHT22;8078;47.822;9.402;2023-05-02T10:29:50;13.10;99.90
15959;DHT22;8078;47.822;9.402;2023-05-02T10:32:17;13.40;99.90
15959;DHT22;8078;47.822;9.402;2023-05-02T10:34:43;13.40;99.90
15959;DHT22;8078;47.822;9.402;2023-05-02T10:37:11;13.20;99.90
15959;DHT22;8078;47.822;9.402;2023-05-02T10:39:36;12.80;99.90
15959;DHT22;8078;47.822;9.402;2023-05-02T10:42:03;12.70;99.90
15959;DHT22;8078;47.822;9.402;2023-05-02T10:44:34;12.50;99.90
15959;DHT22;8078;47.822;9.402;2023-05-02T10:47:00;12.40;99.90
15959;DHT22;8078;47.822;9.402;2023-05-02T10:49:26;12.30;99.90
15959;DHT22;8078;47.822;9.402;2023-05-02T10:51:54;12.10;99.90
15959;DHT22;8078;47.822;9.402;2023-05-02T10:54:23;12.10;99.90
15959;DHT22;8078;47.822;9.402;2023-05-02T10:59:29;11.70;99.90
15959;DHT22;8078;47.822;9.402;2023-05-02T11:01:55;11.50;99.90
15959;DHT22;8078;47.822;9.402;2023-05-02T11:04:21;11.30;99.90
15959;DHT22;8078;47.822;9.402;2023-05-02T11:11:47;11.00;99.90
15959;DHT22;8078;47.822;9.402;2023-05-02T11:19:27;11.50;99.90
15959;DHT22;8078;47.822;9.402;2023-05-02T11:24:43;12.00;99.90
15959;DHT22;8078;47.822;9.402;2023-05-02T11:29:58;12.40;99.90
15959;DHT22;8078;47.822;9.402;2023-05-02T11:38:18;12.90;99.90
15959;DHT22;8078;47.822;9.402;2023-05-02T11:41:04;13.40;99.90
15959;DHT22;8078;47.822;9.402;2023-05-02T11:43:30;13.60;99.90
15959;DHT22;8078;47.822;9.402;2023-05-02T11:45:56;13.40;99.90
15959;DHT22;8078;47.822;9.402;2023-05-02T11:48:24;13.20;99.90
15959;DHT22;8078;47.822;9.402;2023-05-02T11:50:57;13.40;99.90
15959;DHT22;8078;47.822;9.402;2023-05-02T11:53:24;14.20;99.90
15959;DHT22;8078;47.822;9.402;2023-05-02T11:55:52;15.20;99.90
15959;DHT22;8078;47.822;9.402;2023-05-02T11:58:24;15.80;99.90
15959;DHT22;8078;47.822;9.402;2023-05-02T12:00:51;16.20;99.90
15959;DHT22;8078;47.822;9.402;2023-05-02T12:03:20;16.20;99.90
15959;DHT22;8078;47.822;9.402;2023-05-02T12:05:46;15.40;99.90
15959;DHT22;8078;47.822;9.402;2023-05-02T12:08:19;14.90;99.90
15959;DHT22;8078;47.822;9.402;2023-05-02T12:10:46;14.40;99.90
15959;DHT22;8078;47.822;9.402;2023-05-02T12:13:11;14.30;99.90
15959;DHT22;8078;47.822;9.402;2023-05-02T12:15:37;14.80;99.90
15959;DHT22;8078;47.822;9.402;2023-05-02T12:18:03;15.70;99.90
15959;DHT22;8078;47.822;9.402;2023-05-02T12:20:29;16.70;99.90
15959;DHT22;8078;47.822;9.402;2023-05-02T12:22:54;17.50;99.90
15959;DHT22;8078;47.822;9.402;2023-05-02T12:25:20;17.50;99.90
15959;DHT22;8078;47.822;9.402;2023-05-02T12:27:59;17.50;99.90
15959;DHT22;8078;47.822;9.402;2023-05-02T12:30:30;17.90;99.90
15959;DHT22;8078;47.822;9.402;2023-05-02T12:33:00;17.50;99.90
15959;DHT22;8078;47.822;9.402;2023-05-02T12:35:30;17.50;99.90
15959;DHT22;8078;47.822;9.402;2023-05-02T12:40:36;18.20;99.90
15959;DHT22;8078;47.822;9.402;2023-05-02T12:43:03;18.40;99.90
15959;DHT22;8078;47.822;9.402;2023-05-02T12:45:31;18.20;99.90
15959;DHT22;8078;47.822;9.402;2023-05-02T12:48:16;18.10;99.90
15959;DHT22;8078;47.822;9.402;2023-05-02T12:50:41;17.90;99.90
15959;DHT22;8078;47.822;9.402;2023-05-02T12:53:07;17.00;99.90
15959;DHT22;8078;47.822;9.402;2023-05-02T12:55:33;16.10;99.90
15959;DHT22;8078;47.822;9.402;2023-05-02T12:58:09;15.50;99.90
15959;DHT22;8078;47.822;9.402;2023-05-02T13:00:40;15.40;99.90
15959;DHT22;8078;47.822;9.402;2023-05-02T13:03:07;15.20;99.90
15959;DHT22;8078;47.822;9.402;2023-05-02T13:05:34;14.60;99.90
15959;DHT22;8078;47.822;9.402;2023-05-02T13:07:59;13.90;99.90
15959;DHT22;8078;47.822;9.402;2023-05-02T13:10:25;13.30;99.90
15959;DHT22;8078;47.822;9.402;2023-05-02T13:12:52;13.20;99.90
15959;DHT22;8078;47.822;9.402;2023-05-02T13:15:18;13.10;99.90
15959;DHT22;8078;47.822;9.402;2023-05-02T13:17:44;13.10;99.90
15959;DHT22;8078;47.822;9.402;2023-05-02T13:20:10;13.30;99.90
15959;DHT22;8078;47.822;9.402;2023-05-02T13:22:36;13.10;99.90
15959;DHT22;8078;47.822;9.402;2023-05-02T13:25:03;13.20;99.90
15959;DHT22;8078;47.822;9.402;2023-05-02T13:27:28;13.80;99.90
15959;DHT22;8078;47.822;9.402;2023-05-02T13:29:54;14.10;99.90
15959;DHT22;8078;47.822;9.402;2023-05-02T13:32:20;15.20;99.90
15959;DHT22;8078;47.822;9.402;2023-05-02T13:34:46;17.00;99.90
15959;DHT22;8078;47.822;9.402;2023-05-02T13:37:12;17.40;99.90
15959;DHT22;8078;47.822;9.402;2023-05-02T13:39:37;17.00;99.90
15959;DHT22;8078;47.822;9.402;2023-05-02T13:42:03;15.60;99.90
15959;DHT22;8078;47.822;9.402;2023-05-02T13:44:29;15.70;99.90
15959;DHT22;8078;47.822;9.402;2023-05-02T13:46:55;15.70;99.90
15959;DHT22;8078;47.822;9.402;2023-05-02T13:49:20;15.20;99.90
15959;DHT22;8078;47.822;9.402;2023-05-02T13:51:46;14.90;99.90
15959;DHT22;8078;47.822;9.402;2023-05-02T13:54:12;14.40;99.90
15959;DHT22;8078;47.822;9.402;2023-05-02T13:56:40;13.50;99.90
15959;DHT22;8078;47.822;9.402;2023-05-02T13:59:08;13.00;99.90
15959;DHT22;8078;47.822;9.402;2023-05-02T14:01:34;12.70;99.90
15959;DHT22;8078;47.822;9.402;2023-05-02T14:04:00;12.80;99.90
15959;DHT22;8078;47.822;9.402;2023-05-02T14:06:31;12.70;99.90
15959;DHT22;8078;47.822;9.402;2023-05-02T14:08:56;12.40;99.90
15959;DHT22;8078;47.822;9.402;2023-05-02T14:11:22;12.30;99.90
15959;DHT22;8078;47.822;9.402;2023-05-02T14:13:47;12.20;99.90
15959;DHT22;8078;47.822;9.402;2023-05-02T14:16:13;12.30;99.90
15959;DHT22;8078;47.822;9.402;2023-05-02T14:18:39;12.40;99.90
15959;DHT22;8078;47.822;9.402;2023-05-02T14:21:04;12.30;99.90
15959;DHT22;8078;47.822;9.402;2023-05-02T14:23:30;12.40;99.90
15959;DHT22;8078;47.822;9.402;2023-05-02T14:25:55;12.80;99.90
15959;DHT22;8078;47.822;9.402;2023-05-02T14:28:21;13.60;99.90
15959;DHT22;8078;47.822;9.402;2023-05-02T14:30:47;14.60;99.90
15959;DHT22;8078;47.822;9.402;2023-05-02T14:33:13;15.50;99.90
15959;DHT22;8078;47.822;9.402;2023-05-02T14:35:39;15.90;99.90
15959;DHT22;8078;47.822;9.402;2023-05-02T14:38:05;16.30;99.90
15959;DHT22;8078;47.822;9.402;2023-05-02T14:40:30;15.30;99.90
15959;DHT22;8078;47.822;9.402;2023-05-02T14:42:56;15.10;99.90
15959;DHT22;8078;47.822;9.402;2023-05-02T14:45:22;14.30;99.90
15959;DHT22;8078;47.822;9.402;2023-05-02T14:47:48;14.20;99.90
15959;DHT22;8078;47.822;9.402;2023-05-02T14:50:15;13.40;99.90
15959;DHT22;8078;47.822;9.402;2023-05-02T14:52:40;14.90;99.90
15959;DHT22;8078;47.822;9.402;2023-05-02T14:55:06;15.90;99.90
15959;DHT22;8078;47.822;9.402;2023-05-02T14:57:32;16.40;99.90
15959;DHT22;8078;47.822;9.402;2023-05-02T14:59:57;16.60;99.90
15959;DHT22;8078;47.822;9.402;2023-05-02T15:02:23;16.90;99.90
15959;DHT22;8078;47.822;9.402;2023-05-02T15:04:49;17.40;99.90
15959;DHT22;8078;47.822;9.402;2023-05-02T15:07:14;18.00;99.90
15959;DHT22;8078;47.822;9.402;2023-05-02T15:09:40;18.80;99.90
15959;DHT22;8078;47.822;9.402;2023-05-02T15:12:05;19.30;99.90
15959;DHT22;8078;47.822;9.402;2023-05-02T15:14:31;19.70;99.90
15959;DHT22;8078;47.822;9.402;2023-05-02T15:16:56;20.00;99.90
15959;DHT22;8078;47.822;9.402;2023-05-02T15:19:22;20.00;99.90
15959;DHT22;8078;47.822;9.402;2023-05-02T15:21:49;19.20;99.90
15959;DHT22;8078;47.822;9.402;2023-05-02T15:24:17;18.90;99.90
15959;DHT22;8078;47.822;9.402;2023-05-02T15:26:43;19.40;99.90
15959;DHT22;8078;47.822;9.402;2023-05-02T15:29:09;19.80;99.90
15959;DHT22;8078;47.822;9.402;2023-05-02T15:31:35;19.50;99.90
15959;DHT22;8078;47.822;9.402;2023-05-02T15:34:01;19.70;99.90
15959;DHT22;8078;47.822;9.402;2023-05-02T15:36:27;18.90;99.90
15959;DHT22;8078;47.822;9.402;2023-05-02T15:38:57;18.10;99.90
15959;DHT22;8078;47.822;9.402;2023-05-02T15:41:24;18.00;99.90
15959;DHT22;8078;47.822;9.402;2023-05-02T15:43:52;17.50;99.90
15959;DHT22;8078;47.822;9.402;2023-05-02T15:46:18;16.70;99.90
15959;DHT22;8078;47.822;9.402;2023-05-02T15:48:43;15.70;99.90
15959;DHT22;8078;47.822;9.402;2023-05-02T15:51:09;15.30;99.90
15959;DHT22;8078;47.822;9.402;2023-05-02T15:53:36;15.00;99.90
15959;DHT22;8078;47.822;9.402;2023-05-02T15:56:10;14.50;99.90
15959;DHT22;8078;47.822;9.402;2023-05-02T15:58:36;14.00;99.90
15959;DHT22;8078;47.822;9.402;2023-05-02T16:01:02;13.40;99.90
15959;DHT22;8078;47.822;9.402;2023-05-02T16:03:28;13.30;99.90
15959;DHT22;8078;47.822;9.402;2023-05-02T16:05:56;13.00;99.90
15959;DHT22;8078;47.822;9.402;2023-05-02T16:08:24;12.90;99.90
15959;DHT22;8078;47.822;9.402;2023-05-02T16:10:49;13.10;99.90
15959;DHT22;8078;47.822;9.402;2023-05-02T16:13:15;13.20;99.90
15959;DHT22;8078;47.822;9.402;2023-05-02T16:15:40;13.30;99.90
15959;DHT22;8078;47.822;9.402;2023-05-02T16:18:06;13.30;99.90
15959;DHT22;8078;47.822;9.402;2023-05-02T16:20:31;13.50;99.90
15959;DHT22;8078;47.822;9.402;2023-05-02T16:23:01;14.10;99.90
15959;DHT22;8078;47.822;9.402;2023-05-02T16:25:27;14.60;99.90
15959;DHT22;8078;47.822;9.402;2023-05-02T16:27:52;15.30;99.90
15959;DHT22;8078;47.822;9.402;2023-05-02T16:30:18;15.80;99.90
15959;DHT22;8078;47.822;9.402;2023-05-02T16:32:43;16.60;99.90
15959;DHT22;8078;47.822;9.402;2023-05-02T16:35:09;16.10;99.90
15959;DHT22;8078;47.822;9.402;2023-05-02T16:37:37;15.00;99.90
15959;DHT22;8078;47.822;9.402;2023-05-02T16:40:05;14.40;99.90
15959;DHT22;8078;47.822;9.402;2023-05-02T16:42:32;13.10;99.90
15959;DHT22;8078;47.822;9.402;2023-05-02T16:44:58;12.40;99.90
15959;DHT22;8078;47.822;9.402;2023-05-02T16:47:24;12.20;99.90